createdAt,value
2019-05-20T00:01:10.842Z,34.70
2019-05-20T00:03:40.676Z,34.70
2019-05-20T00:06:10.603Z,34.70
2019-05-20T00:08:40.627Z,34.70
2019-05-20T00:11:10.376Z,34.70
2019-05-20T00:13:40.147Z,34.70
2019-05-20T00:16:09.936Z,34.70
2019-05-20T00:18:39.732Z,34.70
2019-05-20T00:21:09.882Z,34.70
2019-05-20T00:23:40.084Z,34.70
2019-05-20T00:26:09.826Z,34.80
2019-05-20T00:28:39.582Z,34.70
2019-05-20T00:31:09.435Z,34.70
2019-05-20T00:33:39.440Z,34.80
2019-05-20T00:36:10.057Z,35.30
2019-05-20T00:38:39.834Z,34.80
2019-05-20T00:41:09.626Z,34.80
2019-05-20T00:43:39.378Z,34.80
2019-05-20T00:46:09.163Z,34.70
2019-05-20T00:48:40.126Z,34.80
2019-05-20T00:51:09.878Z,34.80
2019-05-20T00:53:41.509Z,34.70
2019-05-20T00:56:11.261Z,34.70
2019-05-20T00:58:41.015Z,34.70
2019-05-20T01:01:11.325Z,34.80
2019-05-20T01:03:41.190Z,34.80
2019-05-20T01:06:10.947Z,34.80
2019-05-20T01:08:40.718Z,34.80
2019-05-20T01:11:10.538Z,34.90
2019-05-20T01:13:40.301Z,34.80
2019-05-20T01:16:10.078Z,34.80
2019-05-20T01:18:39.841Z,34.80
2019-05-20T01:21:09.590Z,34.80
2019-05-20T01:23:39.443Z,34.80
2019-05-20T01:26:09.253Z,34.80
2019-05-20T01:28:39.035Z,34.80
2019-05-20T01:31:09.619Z,34.80
2019-05-20T01:33:39.650Z,34.80
2019-05-20T01:36:10.881Z,34.80
2019-05-20T01:38:40.649Z,34.80
2019-05-20T01:41:11.940Z,34.80
2019-05-20T01:43:41.987Z,34.90
2019-05-20T01:46:11.757Z,34.90
2019-05-20T01:48:41.570Z,34.80
2019-05-20T01:51:11.971Z,34.80
2019-05-20T01:53:41.834Z,34.90
2019-05-20T01:56:11.683Z,34.80
2019-05-20T01:58:41.488Z,34.90
2019-05-20T02:01:11.403Z,34.90
2019-05-20T02:03:41.180Z,34.80
2019-05-20T02:06:11.498Z,34.80
2019-05-20T02:08:41.352Z,34.90
2019-05-20T02:11:11.199Z,34.90
2019-05-20T02:13:53.223Z,34.90
2019-05-20T02:16:23.565Z,34.90
2019-05-20T02:18:53.371Z,34.90
2019-05-20T02:21:23.684Z,34.90
2019-05-20T02:23:53.466Z,34.90
2019-05-20T02:26:23.828Z,34.90
2019-05-20T02:28:53.686Z,34.90
2019-05-20T02:34:23.444Z,34.90
2019-05-20T02:36:54.254Z,34.90
2019-05-20T02:39:26.727Z,34.90
2019-05-20T02:41:55.646Z,34.90
2019-05-20T02:44:25.472Z,34.90
2019-05-20T02:46:55.693Z,34.90
2019-05-20T02:49:25.480Z,34.90
2019-05-20T02:51:55.330Z,34.90
2019-05-20T02:54:25.304Z,34.90
2019-05-20T02:56:55.075Z,35.00
2019-05-20T02:59:24.850Z,34.90
2019-05-20T03:01:54.879Z,34.90
2019-05-20T03:04:24.692Z,34.90
2019-05-20T03:06:54.461Z,34.90
2019-05-20T03:09:24.279Z,34.90
2019-05-20T03:11:54.038Z,34.90
2019-05-20T03:14:23.820Z,34.90
2019-05-20T03:16:53.633Z,34.90
2019-05-20T03:19:23.448Z,35.40
2019-05-20T03:21:53.407Z,34.90
2019-05-20T03:24:23.203Z,34.90
2019-05-20T03:26:53.047Z,34.90
2019-05-20T03:29:22.823Z,34.90
2019-05-20T03:31:54.023Z,34.80
2019-05-20T03:34:45.522Z,34.80
2019-05-20T03:36:57.535Z,34.80
2019-05-20T03:39:27.391Z,34.90
2019-05-20T03:41:57.251Z,34.80
2019-05-20T03:44:27.070Z,34.80
2019-05-20T03:46:56.851Z,34.80
2019-05-20T03:49:26.626Z,34.70
2019-05-20T03:51:56.466Z,34.80
2019-05-20T03:54:26.290Z,34.80
2019-05-20T03:56:56.070Z,34.80
2019-05-20T03:59:26.564Z,34.80
2019-05-20T04:01:56.349Z,34.80
2019-05-20T04:04:26.143Z,34.80
2019-05-20T04:06:56.004Z,34.70
2019-05-20T04:09:25.908Z,34.70
2019-05-20T04:11:55.847Z,34.70
2019-05-20T04:14:25.647Z,34.80
2019-05-20T04:16:55.427Z,34.70
2019-05-20T04:19:25.362Z,34.70
2019-05-20T04:21:56.239Z,34.80
2019-05-20T04:24:27.597Z,34.70
2019-05-20T04:27:00.557Z,34.70
2019-05-20T04:29:30.433Z,34.70
2019-05-20T04:32:02.460Z,34.60
2019-05-20T04:34:33.334Z,34.60
2019-05-20T04:37:03.140Z,34.60
2019-05-20T04:39:33.029Z,34.60
2019-05-20T04:42:06.548Z,34.60
2019-05-20T04:44:34.413Z,34.60
2019-05-20T04:47:04.363Z,34.60
2019-05-20T04:49:34.151Z,34.60
2019-05-20T04:52:03.926Z,34.60
2019-05-20T04:54:33.937Z,34.60
2019-05-20T04:57:03.787Z,34.60
2019-05-20T04:59:33.744Z,34.60
2019-05-20T05:02:03.555Z,34.50
2019-05-20T05:04:33.352Z,34.50
2019-05-20T05:07:03.291Z,34.60
2019-05-20T05:09:33.149Z,34.50
2019-05-20T05:12:03.275Z,34.50
2019-05-20T05:14:33.390Z,34.50
2019-05-20T05:17:03.338Z,34.60
2019-05-20T05:19:33.203Z,34.50
2019-05-20T05:22:03.070Z,34.50
2019-05-20T05:24:33.536Z,34.50
2019-05-20T05:27:03.855Z,34.60
2019-05-20T05:29:33.804Z,34.50
2019-05-20T05:32:06.374Z,35.00
2019-05-20T05:34:37.313Z,34.50
2019-05-20T05:37:07.083Z,34.40
2019-05-20T05:39:36.873Z,34.40
2019-05-20T05:42:06.741Z,34.40
2019-05-20T05:44:36.537Z,34.40
2019-05-20T05:47:06.315Z,34.40
2019-05-20T05:49:36.487Z,34.40
2019-05-20T05:52:06.327Z,34.50
2019-05-20T05:54:36.098Z,34.40
2019-05-20T05:57:05.915Z,34.40
2019-05-20T05:59:35.692Z,34.40
2019-05-20T06:02:05.473Z,34.40
2019-05-20T06:04:35.271Z,34.40
2019-05-20T06:07:05.106Z,34.40
2019-05-20T06:09:34.904Z,34.40
2019-05-20T06:12:04.974Z,34.80
2019-05-20T06:14:35.933Z,35.80
2019-05-20T06:17:05.714Z,36.00
2019-05-20T06:19:35.512Z,35.80
2019-05-20T06:22:05.395Z,35.80
2019-05-20T06:24:35.170Z,35.70
2019-05-20T06:27:05.050Z,35.60
2019-05-20T06:29:34.938Z,35.60
2019-05-20T06:32:06.055Z,35.50
2019-05-20T06:34:41.989Z,35.50
2019-05-20T06:37:12.682Z,35.50
2019-05-20T06:39:43.044Z,35.40
2019-05-20T06:42:12.971Z,35.30
2019-05-20T06:44:52.328Z,35.30
2019-05-20T06:47:14.346Z,35.30
2019-05-20T06:49:44.136Z,35.30
2019-05-20T06:52:13.995Z,35.30
2019-05-20T06:54:44.800Z,35.30
2019-05-20T06:57:14.927Z,35.30
2019-05-20T06:59:45.007Z,35.30
2019-05-20T07:02:15.684Z,35.40
2019-05-20T07:04:45.526Z,35.50
2019-05-20T07:07:20.920Z,35.70
2019-05-20T07:09:46.985Z,35.80
2019-05-20T07:12:16.791Z,35.70
2019-05-20T07:14:46.572Z,36.30
2019-05-20T07:17:17.104Z,36.50
2019-05-20T07:19:46.919Z,36.40
2019-05-20T07:22:16.843Z,36.30
2019-05-20T07:24:46.789Z,36.10
2019-05-20T07:27:16.646Z,36.10
2019-05-20T07:29:46.434Z,36.20
2019-05-20T07:32:17.091Z,36.20
2019-05-20T07:34:47.664Z,36.20
2019-05-20T07:37:18.426Z,36.20
2019-05-20T07:39:48.229Z,36.20
2019-05-20T07:42:18.159Z,36.30
2019-05-20T07:44:48.043Z,36.20
2019-05-20T07:47:18.023Z,36.30
2019-05-20T07:49:50.446Z,36.30
2019-05-20T07:52:22.982Z,36.10
2019-05-20T07:54:54.541Z,36.20
2019-05-20T07:57:28.354Z,36.30
2019-05-20T07:59:58.974Z,36.30
2019-05-20T08:02:30.082Z,36.40
2019-05-20T08:05:00.141Z,36.20
2019-05-20T08:07:50.349Z,36.20
2019-05-20T08:10:02.189Z,36.20
2019-05-20T08:12:32.375Z,36.20
2019-05-20T08:15:02.331Z,36.10
2019-05-20T08:17:32.675Z,36.10
2019-05-20T08:20:03.684Z,36.10
2019-05-20T08:22:33.748Z,36.10
2019-05-20T08:25:05.217Z,36.10
2019-05-20T08:27:35.122Z,36.10
2019-05-20T08:30:06.017Z,35.90
2019-05-20T08:32:37.334Z,36.00
2019-05-20T08:35:08.676Z,36.00
2019-05-20T08:37:45.496Z,36.20
2019-05-20T08:40:11.841Z,36.00
2019-05-20T08:42:41.663Z,36.10
2019-05-20T08:45:11.926Z,36.70
2019-05-20T08:47:43.535Z,36.10
2019-05-20T08:50:16.376Z,36.20
2019-05-20T08:52:46.000Z,36.30
2019-05-20T08:55:16.076Z,36.30
2019-05-20T08:57:48.106Z,36.30
2019-05-20T09:00:23.300Z,36.40
2019-05-20T09:02:53.588Z,36.40
2019-05-20T09:05:23.539Z,36.40
2019-05-20T09:08:03.717Z,36.30
2019-05-20T09:10:33.595Z,36.20
2019-05-20T09:13:38.447Z,36.30
2019-05-20T09:16:08.826Z,36.40
2019-05-20T09:18:39.408Z,36.50
2019-05-20T09:21:10.343Z,36.50
2019-05-20T09:23:40.598Z,36.30
2019-05-20T09:26:11.042Z,36.30
2019-05-20T09:28:41.446Z,36.50
2019-05-20T09:31:11.442Z,36.50
2019-05-20T09:33:42.339Z,36.40
2019-05-20T09:36:13.072Z,36.40
2019-05-20T09:38:44.596Z,36.30
2019-05-20T09:41:14.502Z,36.40
2019-05-20T09:43:44.491Z,36.50
2019-05-20T09:46:14.387Z,36.50
2019-05-20T09:48:44.170Z,36.60
2019-05-20T09:51:14.474Z,36.50
2019-05-20T09:53:45.196Z,36.60
2019-05-20T09:56:15.757Z,36.60
2019-05-20T09:58:46.621Z,36.60
2019-05-20T10:01:16.612Z,36.60
2019-05-20T10:03:46.474Z,36.50
2019-05-20T10:06:16.281Z,36.50
2019-05-20T10:08:46.198Z,36.60
2019-05-20T10:11:16.199Z,37.20
2019-05-20T10:13:46.050Z,36.50
2019-05-20T10:16:15.912Z,36.50
2019-05-20T10:18:45.696Z,36.50
2019-05-20T10:21:17.145Z,36.50
2019-05-20T10:23:47.014Z,36.50
2019-05-20T10:26:16.860Z,36.40
2019-05-20T10:28:47.672Z,36.40
2019-05-20T10:31:17.871Z,36.40
2019-05-20T10:33:47.702Z,36.30
2019-05-20T10:36:18.383Z,36.30
2019-05-20T10:38:58.435Z,36.20
2019-05-20T10:41:21.264Z,36.80
2019-05-20T10:43:51.067Z,35.60
2019-05-20T10:46:20.864Z,36.10
2019-05-20T10:48:50.739Z,37.00
2019-05-20T10:51:21.770Z,38.10
2019-05-20T10:53:52.586Z,38.90
2019-05-20T10:56:22.462Z,40.10
2019-05-20T10:58:52.339Z,40.40
2019-05-20T11:01:22.170Z,41.20
2019-05-20T11:03:52.244Z,41.50
2019-05-20T11:06:22.036Z,41.30
2019-05-20T11:08:51.838Z,40.90
2019-05-20T11:11:21.626Z,40.60
2019-05-20T11:13:51.410Z,40.30
2019-05-20T11:16:21.329Z,40.10
2019-05-20T11:18:52.672Z,39.70
2019-05-20T11:21:22.874Z,39.60
2019-05-20T11:23:52.662Z,39.40
2019-05-20T11:26:22.455Z,39.40
2019-05-20T11:28:52.410Z,39.40
2019-05-20T11:31:22.227Z,39.30
2019-05-20T11:33:53.499Z,39.30
2019-05-20T11:36:23.518Z,39.30
2019-05-20T11:38:54.568Z,39.40
2019-05-20T11:41:52.142Z,39.40
2019-05-20T11:43:57.579Z,39.50
2019-05-20T11:46:27.462Z,39.50
2019-05-20T11:48:57.254Z,39.40
2019-05-20T11:51:27.569Z,39.40
2019-05-20T11:53:57.372Z,39.40
2019-05-20T11:56:27.250Z,39.30
2019-05-20T11:58:58.182Z,39.30
2019-05-20T12:01:28.044Z,39.20
2019-05-20T12:03:58.023Z,39.20
2019-05-20T12:06:28.136Z,39.10
2019-05-20T12:08:57.915Z,38.90
2019-05-20T12:11:30.601Z,39.00
2019-05-20T12:14:00.471Z,39.80
2019-05-20T12:16:30.285Z,40.60
2019-05-20T12:19:00.110Z,41.80
2019-05-20T12:21:30.134Z,42.00
2019-05-20T12:24:00.105Z,42.40
2019-05-20T12:26:30.102Z,42.50
2019-05-20T12:29:01.506Z,42.80
2019-05-20T12:31:31.555Z,43.20
2019-05-20T12:34:02.419Z,43.50
2019-05-20T12:36:32.817Z,43.30
2019-05-20T12:39:04.439Z,42.80
2019-05-20T12:41:35.164Z,42.40
2019-05-20T12:44:11.502Z,42.20
2019-05-20T12:46:36.975Z,41.90
2019-05-20T12:49:08.630Z,41.80
2019-05-20T12:51:38.523Z,41.60
2019-05-20T12:54:08.328Z,41.40
2019-05-20T12:56:38.299Z,41.30
2019-05-20T12:59:08.108Z,41.10
2019-05-20T13:01:37.915Z,41.00
2019-05-20T13:04:08.589Z,40.90
2019-05-20T13:06:38.909Z,40.90
2019-05-20T13:09:09.272Z,40.80
2019-05-20T13:11:39.146Z,40.70
2019-05-20T13:14:13.706Z,40.70
2019-05-20T13:16:43.553Z,40.60
2019-05-20T13:19:13.344Z,40.60
2019-05-20T13:21:43.974Z,40.50
2019-05-20T13:24:13.835Z,40.50
2019-05-20T13:26:43.975Z,40.40
2019-05-20T13:29:13.931Z,40.40
2019-05-20T13:31:44.586Z,40.40
2019-05-20T13:34:18.177Z,40.30
2019-05-20T13:36:47.120Z,40.10
2019-05-20T13:39:17.323Z,40.20
2019-05-20T13:41:50.215Z,40.10
2019-05-20T13:44:20.073Z,40.00
2019-05-20T13:46:49.928Z,40.10
2019-05-20T13:49:19.910Z,39.90
2019-05-20T13:51:50.245Z,39.90
2019-05-20T13:54:20.051Z,40.00
2019-05-20T13:56:49.942Z,40.00
2019-05-20T13:59:19.735Z,40.00
2019-05-20T14:01:49.658Z,40.00
2019-05-20T14:04:19.812Z,40.00
2019-05-20T14:06:49.950Z,40.00
2019-05-20T14:09:19.870Z,40.00
2019-05-20T14:11:49.755Z,39.90
2019-05-20T14:14:19.545Z,39.90
2019-05-20T14:16:49.352Z,39.90
2019-05-20T14:19:22.563Z,39.90
2019-05-20T14:21:50.829Z,39.90
2019-05-20T14:24:21.279Z,39.90
2019-05-20T14:26:51.082Z,39.90
2019-05-20T14:29:21.045Z,39.80
2019-05-20T14:31:52.363Z,39.70
2019-05-20T14:34:23.498Z,39.70
2019-05-20T14:36:53.696Z,39.80
2019-05-20T14:39:23.612Z,39.80
2019-05-20T14:41:54.429Z,39.70
2019-05-20T14:44:24.419Z,39.70
2019-05-20T14:46:54.288Z,39.70
2019-05-20T14:49:25.223Z,39.60
2019-05-20T14:51:55.992Z,39.70
2019-05-20T14:54:25.786Z,39.60
2019-05-20T14:56:55.767Z,39.60
2019-05-20T14:59:25.679Z,39.50
2019-05-20T15:01:55.528Z,39.50
2019-05-20T15:04:25.391Z,39.40
2019-05-20T15:06:55.562Z,39.30
2019-05-20T15:09:25.839Z,39.50
2019-05-20T15:11:55.739Z,39.40
2019-05-20T15:14:25.647Z,39.40
2019-05-20T15:16:55.454Z,39.50
2019-05-20T15:19:25.258Z,39.40
2019-05-20T15:21:55.100Z,39.40
2019-05-20T15:24:25.114Z,39.40
2019-05-20T15:26:55.248Z,39.40
2019-05-20T15:29:28.359Z,39.90
2019-05-20T15:31:57.903Z,39.40
2019-05-20T15:34:29.234Z,39.40
2019-05-20T15:36:59.034Z,39.40
2019-05-20T15:39:28.837Z,39.40
2019-05-20T15:41:59.453Z,39.30
2019-05-20T15:44:30.042Z,39.30
2019-05-20T15:46:59.851Z,39.30
2019-05-20T15:49:29.649Z,39.30
2019-05-20T15:51:59.591Z,39.30
2019-05-20T15:54:29.370Z,39.30
2019-05-20T15:56:59.439Z,39.20
2019-05-20T15:59:44.993Z,39.30
2019-05-20T16:02:01.182Z,39.20
2019-05-20T16:04:31.185Z,39.20
2019-05-20T16:07:01.020Z,39.20
2019-05-20T16:09:30.814Z,39.20
2019-05-20T16:12:00.728Z,39.20
2019-05-20T16:14:30.511Z,39.20
2019-05-20T16:17:00.385Z,39.20
2019-05-20T16:19:30.218Z,39.20
2019-05-20T16:22:01.728Z,39.20
2019-05-20T16:24:31.980Z,39.30
2019-05-20T16:27:01.813Z,39.20
2019-05-20T16:29:31.587Z,39.20
2019-05-20T16:32:03.422Z,39.30
2019-05-20T16:34:34.483Z,39.20
2019-05-20T16:37:05.702Z,39.20
2019-05-20T16:39:35.596Z,39.20
2019-05-20T16:42:05.510Z,39.20
2019-05-20T16:44:35.874Z,39.20
2019-05-20T16:47:06.255Z,39.20
2019-05-20T16:49:39.179Z,39.20
2019-05-20T16:52:09.067Z,39.20
2019-05-20T16:54:38.914Z,39.20
2019-05-20T16:57:09.019Z,39.20
2019-05-20T16:59:38.865Z,39.20
2019-05-20T17:02:09.019Z,39.20
2019-05-20T17:04:38.890Z,39.20
2019-05-20T17:07:08.818Z,39.20
2019-05-20T17:09:38.606Z,39.20
2019-05-20T17:12:09.021Z,39.20
2019-05-20T17:14:38.828Z,39.20
2019-05-20T17:17:08.974Z,39.20
2019-05-20T17:19:38.970Z,39.20
2019-05-20T17:22:09.819Z,39.20
2019-05-20T17:24:39.611Z,39.10
2019-05-20T17:27:09.390Z,39.20
2019-05-20T17:29:39.326Z,39.10
2019-05-20T17:32:10.384Z,39.20
2019-05-20T17:34:40.421Z,39.20
2019-05-20T17:37:10.214Z,39.10
2019-05-20T17:39:40.174Z,39.10
2019-05-20T17:42:10.121Z,39.10
2019-05-20T17:44:40.946Z,39.20
2019-05-20T17:47:10.878Z,39.20
2019-05-20T17:49:40.666Z,39.20
2019-05-20T17:52:10.606Z,39.20
2019-05-20T17:54:40.394Z,39.20
2019-05-20T17:57:10.181Z,39.20
2019-05-20T17:59:40.454Z,39.20
2019-05-20T18:02:12.107Z,39.20
2019-05-20T18:04:42.023Z,39.20
2019-05-20T18:07:11.948Z,39.10
2019-05-20T18:09:47.910Z,39.20
2019-05-20T18:12:18.147Z,39.20
2019-05-20T18:14:52.359Z,39.20
2019-05-20T18:17:22.207Z,39.20
2019-05-20T18:19:52.074Z,39.20
2019-05-20T18:22:21.972Z,39.20
2019-05-20T18:24:51.773Z,39.20
2019-05-20T18:27:21.551Z,39.20
2019-05-20T18:29:52.072Z,39.20
2019-05-20T18:32:22.582Z,39.20
2019-05-20T18:34:52.994Z,39.20
2019-05-20T18:37:22.770Z,39.20
2019-05-20T18:39:52.545Z,39.20
2019-05-20T18:42:22.351Z,39.20
2019-05-20T18:44:52.726Z,39.10
2019-05-20T18:47:22.498Z,39.20
2019-05-20T18:49:52.351Z,39.20
2019-05-20T18:52:22.137Z,39.10
2019-05-20T18:54:51.929Z,39.20
2019-05-20T18:57:21.698Z,39.10
2019-05-20T18:59:53.170Z,39.10
2019-05-20T19:02:23.031Z,39.60
2019-05-20T19:04:52.879Z,39.10
2019-05-20T19:07:22.675Z,39.10
2019-05-20T19:09:52.450Z,39.10
2019-05-20T19:12:22.247Z,39.10
2019-05-20T19:14:52.058Z,39.10
2019-05-20T19:17:21.895Z,39.10
2019-05-20T19:19:51.755Z,39.10
2019-05-20T19:22:21.879Z,39.10
2019-05-20T19:24:51.669Z,39.10
2019-05-20T19:27:21.434Z,39.10
2019-05-20T19:29:51.297Z,39.10
2019-05-20T19:32:23.286Z,39.10
2019-05-20T19:34:53.154Z,39.10
2019-05-20T19:37:22.930Z,39.10
2019-05-20T19:39:52.801Z,39.00
2019-05-20T19:42:22.618Z,39.00
2019-05-20T19:44:53.066Z,39.10
2019-05-20T19:47:24.634Z,39.10
2019-05-20T19:49:54.430Z,39.10
2019-05-20T19:52:24.201Z,39.10
2019-05-20T19:54:53.976Z,39.10
2019-05-20T19:57:23.826Z,39.10
2019-05-20T19:59:53.598Z,39.60
2019-05-20T20:02:23.462Z,39.10
2019-05-20T20:04:53.302Z,39.10
2019-05-20T20:07:23.141Z,39.10
2019-05-20T20:09:53.353Z,39.10
2019-05-20T20:12:23.137Z,39.10
2019-05-20T20:14:52.920Z,39.10
2019-05-20T20:17:22.796Z,39.10
2019-05-20T20:19:52.784Z,39.10
2019-05-20T20:22:22.565Z,39.10
2019-05-20T20:24:52.359Z,39.10
2019-05-20T20:27:22.129Z,39.00
2019-05-20T20:29:51.934Z,39.00
2019-05-20T20:32:36.736Z,39.00
2019-05-20T20:34:54.774Z,39.10
2019-05-20T20:37:24.586Z,39.00
2019-05-20T20:39:54.362Z,39.00
2019-05-20T20:42:24.134Z,39.00
2019-05-20T20:44:53.933Z,39.00
2019-05-20T20:47:24.126Z,39.00
2019-05-20T20:49:54.623Z,39.00
2019-05-20T20:52:24.395Z,39.00
2019-05-20T20:54:54.159Z,39.00
2019-05-20T20:57:23.954Z,39.00
2019-05-20T20:59:53.797Z,39.00
2019-05-20T21:02:23.575Z,39.00
2019-05-20T21:04:53.617Z,39.00
2019-05-20T21:07:23.466Z,39.00
2019-05-20T21:09:53.255Z,39.00
2019-05-20T21:12:23.164Z,39.00
2019-05-20T21:14:52.965Z,39.00
2019-05-20T21:17:22.773Z,39.00
2019-05-20T21:19:52.578Z,39.00
2019-05-20T21:22:22.377Z,39.00
2019-05-20T21:24:52.150Z,39.00
2019-05-20T21:27:22.439Z,39.00
2019-05-20T21:29:52.471Z,39.00
2019-05-20T21:32:22.674Z,38.90
2019-05-20T21:34:53.938Z,38.90
2019-05-20T21:37:23.714Z,39.00
2019-05-20T21:39:53.482Z,38.90
2019-05-20T21:42:23.260Z,38.90
2019-05-20T21:44:54.911Z,39.00
2019-05-20T21:47:24.943Z,38.90
2019-05-20T21:49:56.003Z,38.90
2019-05-20T21:52:25.775Z,38.90
2019-05-20T21:54:55.550Z,39.00
2019-05-20T21:57:25.341Z,38.90
2019-05-20T21:59:55.158Z,38.90
2019-05-20T22:02:26.698Z,38.90
2019-05-20T22:04:57.654Z,38.90
2019-05-20T22:07:27.621Z,38.90
2019-05-20T22:09:57.382Z,38.90
2019-05-20T22:12:27.163Z,38.90
2019-05-20T22:14:57.079Z,38.90
2019-05-20T22:17:27.007Z,38.80
2019-05-20T22:19:56.820Z,38.80
2019-05-20T22:22:32.202Z,38.80
2019-05-20T22:25:02.363Z,38.80
2019-05-20T22:27:32.263Z,38.80
2019-05-20T22:30:02.039Z,38.80
2019-05-20T22:32:32.714Z,38.90
2019-05-20T22:35:04.667Z,38.90
2019-05-20T22:37:34.514Z,38.90
2019-05-20T22:40:05.302Z,38.90
2019-05-20T22:42:35.095Z,38.90
2019-05-20T22:45:05.440Z,38.90
2019-05-20T22:47:35.887Z,38.90
2019-05-20T22:50:06.645Z,38.80
2019-05-20T22:52:36.472Z,38.90
2019-05-20T22:55:06.835Z,38.90
2019-05-20T22:57:36.607Z,38.90
2019-05-20T23:00:06.838Z,38.80
2019-05-20T23:02:36.641Z,38.80
2019-05-20T23:05:06.623Z,38.80
2019-05-20T23:07:36.443Z,38.90
2019-05-20T23:10:06.651Z,38.80
2019-05-20T23:12:36.427Z,38.80
2019-05-20T23:15:06.666Z,38.90
2019-05-20T23:17:36.467Z,38.80
2019-05-20T23:20:07.564Z,38.80
2019-05-20T23:22:37.786Z,38.80
2019-05-20T23:25:07.639Z,38.80
2019-05-20T23:27:37.430Z,38.80
2019-05-20T23:30:08.258Z,38.80
2019-05-20T23:32:38.979Z,38.80
2019-05-20T23:35:11.230Z,38.80
2019-05-20T23:37:41.002Z,38.80
2019-05-20T23:40:11.151Z,38.80
2019-05-20T23:42:41.018Z,38.90
2019-05-20T23:45:11.766Z,38.80
2019-05-20T23:47:41.545Z,38.80
2019-05-20T23:50:12.515Z,38.90
2019-05-20T23:52:42.299Z,38.80
2019-05-20T23:55:12.954Z,38.80
2019-05-20T23:57:42.735Z,38.80
